EGGD/BRS METAR and TAF weather

Enter ICAO airport designator
Station Type Date Time Source
EGGD METAR 2021/05/10 00:50 UTC NOAA

EGGD 100050Z AUTO 14008KT 120V190 9999 OVC007 10/08 Q0994


Station Type Date Time Source
EGGD Decoded METAR 2021/05/10 00:50 UTC NOAA

Bristol / Lulsgate , United Kingdom (EGGD) 51-23N 002-43W
May 09, 2021 - 08:50 PM EDT / 2021.05.10 0050 UTC
Wind: from the SE (140 degrees) at 9 MPH (8 KT) (direction variable):0
Visibility: greater than 7 mile(s):0
Sky conditions: overcast
Temperature: 50 F (10 C)
Dew Point: 46 F (8 C)
Relative Humidity: 87%
Pressure (altimeter): 29.35 in. Hg (0994 hPa)
ob: EGGD 100050Z AUTO 14008KT 120V190 9999 OVC007 10/08 Q0994
cycle: 1

Station Type Date Time Source
EGGD TAF 2021/05/09 18:09 UTC NOAA

TAF EGGD 091656Z 0918/1018 17009KT 9999 SCT025 PROB30
TEMPO 0918/1008 7000 SHRA BKN008
BECMG 1006/1009 20015G25KT
TEMPO 1008/1018 7000 SHRA PROB30
TEMPO 1010/1016 20025G35KT 4000 +SHRA BKN014CB

Example: see airport list